Eutaw, Mississippi
Current Conditions -  °F | °C
As of 2:53 AM on Monday 22 Dec 2014 (Local Time) from KGLH Reporting Station
Haze Haze  
Wind Chill: 50°   Ceiling: 500
Heat Index: 50°   Visibility: 5mi
Dew Point: 48°   Wind: 14mph
Humidity: 93%   Direction: 160°SSE
Pressure: 29.87"   Gusts: NA
Location:  33.6504°N, 91.0785°W
Report Text: KGLH 220853Z AUTO 16012KT 5SM BR OVC005 10/09 A2987 RMK AO2 SLP121 T01000089 58009
Loading
Personal Weather Stations






























Interactive Weather Map New forecast layout! Learn more

10-Day Weather Forecast

Advertisements
Track Severe Weather on mobile